createdAt,value
2022-09-30T00:02:40.135Z,100283.88
2022-09-30T00:05:47.239Z,100278.57
2022-09-30T00:08:54.120Z,100279.09
2022-09-30T00:12:00.381Z,100281.02
2022-09-30T00:15:07.133Z,100280.47
2022-09-30T00:18:14.904Z,100282.41
2022-09-30T00:21:22.864Z,100271.67
2022-09-30T00:24:28.068Z,100279.95
2022-09-30T00:27:35.776Z,100279.22
2022-09-30T00:30:43.091Z,100279.53
2022-09-30T00:33:49.166Z,100278.14
2022-09-30T00:37:05.250Z,100289.49
2022-09-30T00:40:11.151Z,100283.45
2022-09-30T00:43:16.701Z,100282.59
2022-09-30T00:46:32.240Z,100283.66
2022-09-30T00:49:37.884Z,100278.66
2022-09-30T00:52:45.416Z,100273.91
2022-09-30T00:56:18.829Z,100276.33
2022-09-30T00:59:31.904Z,100277.61
2022-09-30T01:02:37.434Z,100283.87
2022-09-30T01:05:42.815Z,100267.42
2022-09-30T01:08:51.485Z,100271.34
2022-09-30T01:11:58.358Z,100270.81
2022-09-30T01:15:04.723Z,100273.34
2022-09-30T01:18:29.746Z,100267.91
2022-09-30T01:22:30.779Z,100275.45
2022-09-30T01:26:14.467Z,100271.05
2022-09-30T01:29:35.961Z,100282.41
2022-09-30T01:33:07.084Z,100281.00
2022-09-30T01:36:38.795Z,100289.36
2022-09-30T01:40:08.851Z,100294.67
2022-09-30T01:43:52.728Z,100290.61
2022-09-30T01:47:05.770Z,100292.09
2022-09-30T01:50:25.314Z,100291.44
2022-09-30T01:53:54.231Z,100297.16
2022-09-30T01:57:08.117Z,100297.03
2022-09-30T02:00:22.090Z,100288.86
2022-09-30T02:03:39.296Z,100311.98
2022-09-30T02:06:57.003Z,100327.01
2022-09-30T02:10:10.354Z,100326.56
2022-09-30T02:13:34.693Z,100324.22
2022-09-30T02:16:51.071Z,100330.66
2022-09-30T02:20:07.888Z,100329.17
2022-09-30T02:23:40.296Z,100330.25
2022-09-30T02:26:49.084Z,100336.58
2022-09-30T02:29:58.156Z,100346.58
2022-09-30T02:33:14.860Z,100353.26
2022-09-30T02:36:34.503Z,100361.11
2022-09-30T02:40:21.944Z,100355.70
2022-09-30T02:43:27.961Z,100351.38
2022-09-30T02:46:50.497Z,100348.95
2022-09-30T02:50:06.595Z,100352.75
2022-09-30T02:53:38.480Z,100364.33
2022-09-30T02:57:06.841Z,100359.84
2022-09-30T03:00:14.288Z,100368.66
2022-09-30T03:03:43.815Z,100380.31
2022-09-30T03:06:52.972Z,100395.61
2022-09-30T03:09:58.783Z,100395.41
2022-09-30T03:13:13.785Z,100399.34
2022-09-30T03:16:45.077Z,100402.20
2022-09-30T03:20:28.298Z,100414.40
2022-09-30T03:24:00.701Z,100410.61
2022-09-30T03:27:34.186Z,100410.71
2022-09-30T03:30:41.057Z,100394.83
2022-09-30T03:33:57.201Z,100395.48
2022-09-30T03:37:26.031Z,100393.90
2022-09-30T03:40:50.903Z,100389.01
2022-09-30T03:44:17.833Z,100382.11
2022-09-30T03:47:25.170Z,100389.14
2022-09-30T03:50:35.419Z,100389.97
2022-09-30T03:53:42.237Z,100399.97
2022-09-30T03:56:51.848Z,100403.03
2022-09-30T03:59:57.946Z,100402.31
2022-09-30T04:03:03.119Z,100398.48
2022-09-30T04:06:09.544Z,100387.80
2022-09-30T04:09:11.389Z,100382.91
2022-09-30T04:12:18.363Z,100390.45
2022-09-30T04:15:25.012Z,100399.70
2022-09-30T04:18:31.685Z,100391.77
2022-09-30T04:21:39.403Z,100391.55
2022-09-30T04:24:46.304Z,100394.94
2022-09-30T04:27:52.998Z,100393.04
2022-09-30T04:30:58.977Z,100406.41
2022-09-30T04:34:06.703Z,100399.86
2022-09-30T04:37:13.294Z,100404.83
2022-09-30T04:40:18.069Z,100413.45
2022-09-30T04:43:24.723Z,100422.34
2022-09-30T04:46:32.224Z,100426.30
2022-09-30T04:49:39.628Z,100415.41
2022-09-30T04:52:47.127Z,100416.58
2022-09-30T04:55:52.610Z,100423.78
2022-09-30T04:58:58.412Z,100433.23
2022-09-30T05:02:06.071Z,100435.47
2022-09-30T05:05:13.635Z,100433.37
2022-09-30T05:08:22.363Z,100432.30
2022-09-30T05:11:36.459Z,100432.41
2022-09-30T05:14:43.576Z,100430.09
2022-09-30T05:17:51.811Z,100431.05
2022-09-30T05:20:59.424Z,100430.25
2022-09-30T05:24:05.673Z,100431.62
2022-09-30T05:27:11.909Z,100438.34
2022-09-30T05:30:17.061Z,100437.32
2022-09-30T05:33:22.712Z,100440.10
2022-09-30T05:36:29.070Z,100441.81
2022-09-30T05:39:35.694Z,100446.18
2022-09-30T05:42:43.418Z,100449.48
2022-09-30T05:45:48.500Z,100446.73
2022-09-30T05:48:55.649Z,100444.59
2022-09-30T05:52:02.709Z,100445.47
2022-09-30T05:55:08.441Z,100454.28
2022-09-30T05:58:15.518Z,100453.64
2022-09-30T06:01:28.560Z,100452.42
2022-09-30T06:04:35.291Z,100451.04
2022-09-30T06:07:41.873Z,100452.82
2022-09-30T06:10:49.531Z,100444.53
2022-09-30T06:13:57.435Z,100453.69
2022-09-30T06:17:03.553Z,100453.69
2022-09-30T06:20:12.900Z,100454.76
2022-09-30T06:23:19.644Z,100456.14
2022-09-30T06:26:26.708Z,100448.80
2022-09-30T06:29:33.918Z,100457.41
2022-09-30T06:32:49.995Z,100447.73
2022-09-30T06:35:59.442Z,100448.68
2022-09-30T06:39:10.260Z,100455.28
2022-09-30T06:42:15.050Z,100451.75
2022-09-30T06:49:22.581Z,100450.20
2022-09-30T06:52:09.476Z,100452.74
2022-09-30T06:55:25.097Z,100443.88
2022-09-30T06:58:40.231Z,100446.08
2022-09-30T07:02:27.095Z,100454.31
2022-09-30T07:05:51.383Z,100456.52
2022-09-30T07:08:59.130Z,100479.22
2022-09-30T07:12:10.700Z,100486.66
2022-09-30T07:15:17.973Z,100474.09
2022-09-30T07:18:38.257Z,100484.41
2022-09-30T07:21:48.515Z,100491.45
2022-09-30T07:24:55.241Z,100489.34
2022-09-30T07:28:03.202Z,100489.44
2022-09-30T07:31:31.539Z,100487.33
2022-09-30T07:34:36.263Z,100480.55
2022-09-30T07:37:43.051Z,100473.72
2022-09-30T07:40:51.920Z,100480.77
2022-09-30T07:44:00.674Z,100476.49
2022-09-30T07:47:06.729Z,100484.70
2022-09-30T07:50:16.824Z,100490.98
2022-09-30T07:53:24.212Z,100503.86
2022-09-30T07:56:45.637Z,100519.28
2022-09-30T07:59:43.822Z,100518.98
2022-09-30T08:02:49.656Z,100512.89
2022-09-30T08:05:56.232Z,100519.72
2022-09-30T08:09:09.385Z,100514.48
2022-09-30T08:12:17.913Z,100516.52
2022-09-30T08:15:24.140Z,100531.94
2022-09-30T08:18:31.114Z,100542.48
2022-09-30T08:21:37.090Z,100529.39
2022-09-30T08:24:42.339Z,100539.07
2022-09-30T08:27:48.598Z,100539.38
2022-09-30T08:30:54.982Z,100530.34
2022-09-30T08:34:01.927Z,100534.06
2022-09-30T08:37:09.949Z,100544.17
2022-09-30T08:40:17.510Z,100545.13
2022-09-30T08:43:43.915Z,100547.68
2022-09-30T08:47:03.365Z,100546.30
2022-09-30T08:50:33.950Z,100547.33
2022-09-30T08:53:49.356Z,100548.19
2022-09-30T08:56:56.191Z,100548.05
2022-09-30T09:00:11.566Z,100548.39
2022-09-30T09:03:17.508Z,100547.44
2022-09-30T09:06:40.479Z,100533.20
2022-09-30T09:10:17.819Z,100540.10
2022-09-30T09:13:55.636Z,100539.97
2022-09-30T09:17:24.050Z,100540.39
2022-09-30T09:20:32.321Z,100538.35
2022-09-30T09:23:37.866Z,100542.19
2022-09-30T09:26:51.117Z,100552.91
2022-09-30T09:30:13.125Z,100546.41
2022-09-30T09:33:34.557Z,100548.29
2022-09-30T09:37:21.297Z,100552.34
2022-09-30T09:40:51.798Z,100550.59
2022-09-30T09:44:07.807Z,100552.82
2022-09-30T09:47:29.383Z,100552.98
2022-09-30T09:50:56.414Z,100555.65
2022-09-30T09:54:38.695Z,100557.45
2022-09-30T09:57:43.990Z,100557.08
2022-09-30T10:00:53.949Z,100563.23
2022-09-30T10:03:59.647Z,100565.98
2022-09-30T10:07:13.459Z,100554.03
2022-09-30T10:10:31.098Z,100554.41
2022-09-30T10:13:45.614Z,100549.30
2022-09-30T10:16:52.061Z,100548.92
2022-09-30T10:20:10.494Z,100553.08
2022-09-30T10:23:37.270Z,100551.92
2022-09-30T10:26:47.645Z,100552.91
2022-09-30T10:29:54.718Z,100552.19
2022-09-30T10:32:59.392Z,100556.27
2022-09-30T10:36:24.007Z,100558.11
2022-09-30T10:39:52.455Z,100558.86
2022-09-30T10:43:02.126Z,100562.16
2022-09-30T10:46:26.016Z,100548.52
2022-09-30T10:49:51.014Z,100556.84
2022-09-30T10:53:15.906Z,100566.09
2022-09-30T10:56:24.564Z,100566.28
2022-09-30T10:59:44.654Z,100571.34
2022-09-30T11:03:11.445Z,100568.07
2022-09-30T11:06:19.247Z,100575.03
2022-09-30T11:09:52.234Z,100580.09
2022-09-30T11:13:23.084Z,100579.05
2022-09-30T11:16:53.958Z,100577.80
2022-09-30T11:20:16.290Z,100576.19
2022-09-30T11:23:41.843Z,100572.93
2022-09-30T11:27:03.371Z,100585.14
2022-09-30T11:30:35.986Z,100583.52
2022-09-30T11:33:48.800Z,100583.45
2022-09-30T11:37:20.597Z,100591.50
2022-09-30T11:40:46.674Z,100600.86
2022-09-30T11:44:00.066Z,100608.00
2022-09-30T11:47:39.800Z,100612.78
2022-09-30T11:51:02.482Z,100614.77
2022-09-30T11:54:47.364Z,100610.28
2022-09-30T11:58:42.142Z,100613.58
2022-09-30T12:01:45.544Z,100613.59
2022-09-30T12:04:52.872Z,100603.25
2022-09-30T12:08:17.289Z,100600.15
2022-09-30T12:11:32.075Z,100598.38
2022-09-30T12:14:45.416Z,100591.38
2022-09-30T12:17:55.160Z,100592.55
2022-09-30T12:21:14.783Z,100596.19
2022-09-30T12:24:55.066Z,100594.30
2022-09-30T12:28:15.210Z,100591.97
2022-09-30T12:31:48.601Z,100585.27
2022-09-30T12:34:57.032Z,100590.13
2022-09-30T12:38:32.618Z,100582.52
2022-09-30T12:42:16.728Z,100583.79
2022-09-30T12:45:42.714Z,100581.87
2022-09-30T12:49:02.122Z,100580.03
2022-09-30T12:52:12.192Z,100576.81
2022-09-30T12:55:31.908Z,100560.59
2022-09-30T12:58:41.543Z,100559.20
2022-09-30T13:02:08.040Z,100565.69
2022-09-30T13:05:06.082Z,100555.03
2022-09-30T13:08:25.905Z,100562.08
2022-09-30T13:11:53.478Z,100561.16
2022-09-30T13:14:59.567Z,100570.36
2022-09-30T13:18:09.582Z,100573.00
2022-09-30T13:21:25.327Z,100561.31
2022-09-30T13:24:32.068Z,100559.64
2022-09-30T13:28:06.573Z,100553.91
2022-09-30T13:31:38.381Z,100560.70
2022-09-30T13:34:50.502Z,100555.67
2022-09-30T13:37:55.310Z,100562.34
2022-09-30T13:41:35.217Z,100552.84
2022-09-30T13:45:22.993Z,100556.45
2022-09-30T13:48:44.648Z,100553.66
2022-09-30T13:51:51.294Z,100557.59
2022-09-30T13:54:56.957Z,100562.48
2022-09-30T13:58:23.653Z,100562.77
2022-09-30T14:01:49.812Z,100554.48
2022-09-30T14:05:09.539Z,100555.87
2022-09-30T14:08:37.128Z,100560.61
2022-09-30T14:11:56.426Z,100567.56
2022-09-30T14:15:38.559Z,100564.70
2022-09-30T14:19:20.139Z,100561.23
2022-09-30T14:22:27.635Z,100558.87
2022-09-30T14:25:35.173Z,100560.13
2022-09-30T14:28:54.705Z,100555.52
2022-09-30T14:32:02.346Z,100549.80
2022-09-30T14:35:09.259Z,100549.36
2022-09-30T14:38:37.863Z,100557.55
2022-09-30T14:41:45.894Z,100559.09
2022-09-30T14:44:58.643Z,100563.97
2022-09-30T14:48:10.948Z,100559.64
2022-09-30T14:51:25.072Z,100560.02
2022-09-30T14:54:42.874Z,100556.46
2022-09-30T14:57:52.280Z,100561.56
2022-09-30T15:01:02.317Z,100562.50
2022-09-30T15:04:20.153Z,100562.81
2022-09-30T15:07:29.704Z,100563.64
2022-09-30T15:10:38.920Z,100567.72
2022-09-30T15:13:48.389Z,100560.14
2022-09-30T15:17:11.594Z,100569.23
2022-09-30T15:20:21.126Z,100571.59
2022-09-30T15:23:35.230Z,100573.92
2022-09-30T15:26:41.733Z,100573.80
2022-09-30T15:29:53.500Z,100585.11
2022-09-30T15:32:59.587Z,100585.91
2022-09-30T15:36:06.423Z,100590.89
2022-09-30T15:39:14.137Z,100591.39
2022-09-30T15:42:19.414Z,100593.27
2022-09-30T15:45:56.091Z,100598.77
2022-09-30T15:49:01.544Z,100601.45
2022-09-30T15:52:08.542Z,100595.53
2022-09-30T15:55:14.751Z,100601.31
2022-09-30T15:58:54.625Z,100607.94
2022-09-30T16:02:05.400Z,100607.34
2022-09-30T16:05:13.566Z,100612.60
2022-09-30T16:08:24.121Z,100617.30
2022-09-30T16:11:44.028Z,100618.18
2022-09-30T16:15:08.091Z,100621.05
2022-09-30T16:18:13.167Z,100624.69
2022-09-30T16:21:20.812Z,100626.20
2022-09-30T16:24:53.427Z,100620.12
2022-09-30T16:28:02.251Z,100626.31
2022-09-30T16:31:11.327Z,100620.16
2022-09-30T16:34:18.799Z,100613.25
2022-09-30T16:37:29.577Z,100608.55
2022-09-30T16:40:40.415Z,100607.25
2022-09-30T16:43:46.546Z,100612.05
2022-09-30T16:46:51.415Z,100613.87
2022-09-30T16:50:00.718Z,100623.03
2022-09-30T16:53:07.978Z,100621.64
2022-09-30T16:56:16.715Z,100622.69
2022-09-30T16:59:26.349Z,100624.16
2022-09-30T17:02:34.605Z,100615.98
2022-09-30T17:05:41.348Z,100610.55
2022-09-30T17:08:49.027Z,100614.84
2022-09-30T17:11:59.496Z,100622.08
2022-09-30T17:15:05.806Z,100616.97
2022-09-30T17:18:16.706Z,100623.37
2022-09-30T17:21:24.096Z,100625.36
2022-09-30T17:24:30.022Z,100625.92
2022-09-30T17:27:36.383Z,100628.13
2022-09-30T17:30:42.343Z,100621.86
2022-09-30T17:33:51.309Z,100624.72
2022-09-30T17:36:59.849Z,100626.52
2022-09-30T17:40:06.258Z,100626.65
2022-09-30T17:43:18.085Z,100637.59
2022-09-30T17:46:25.565Z,100641.31
2022-09-30T17:49:34.791Z,100627.25
2022-09-30T17:52:42.018Z,100624.27
2022-09-30T17:55:49.185Z,100632.79
2022-09-30T17:58:55.389Z,100636.11
2022-09-30T18:02:06.661Z,100634.39
2022-09-30T18:05:13.328Z,100627.91
2022-09-30T18:08:22.577Z,100633.35
2022-09-30T18:11:30.291Z,100634.09
2022-09-30T18:14:38.511Z,100630.89
2022-09-30T18:17:45.794Z,100640.50
2022-09-30T18:21:01.114Z,100641.76
2022-09-30T18:24:08.922Z,100643.58
2022-09-30T18:27:22.665Z,100634.02
2022-09-30T18:30:30.438Z,100634.50
2022-09-30T18:33:37.985Z,100630.56
2022-09-30T18:36:46.445Z,100638.03
2022-09-30T18:39:55.351Z,100636.64
2022-09-30T18:43:04.837Z,100645.25
2022-09-30T18:46:12.457Z,100637.37
2022-09-30T18:49:21.279Z,100638.01
2022-09-30T18:52:27.808Z,100618.21
2022-09-30T18:55:36.671Z,100626.73
2022-09-30T18:58:43.530Z,100625.46
2022-09-30T19:01:53.373Z,100633.32
2022-09-30T19:05:00.928Z,100637.89
2022-09-30T19:08:09.927Z,100631.41
2022-09-30T19:11:23.862Z,100646.61
2022-09-30T19:14:32.440Z,100655.73
2022-09-30T19:17:38.622Z,100657.98
2022-09-30T19:20:46.340Z,100665.20
2022-09-30T19:23:53.961Z,100674.88
2022-09-30T19:27:00.774Z,100685.95
2022-09-30T19:30:08.347Z,100687.67
2022-09-30T19:33:16.541Z,100695.97
2022-09-30T19:36:24.635Z,100690.75
2022-09-30T19:39:42.818Z,100673.09
2022-09-30T19:42:41.250Z,100669.23
2022-09-30T19:45:51.098Z,100667.52
2022-09-30T19:48:57.784Z,100668.98
2022-09-30T19:52:17.431Z,100660.36
2022-09-30T19:55:17.256Z,100662.67
2022-09-30T19:58:26.529Z,100673.63
2022-09-30T20:01:37.628Z,100670.84
2022-09-30T20:04:46.973Z,100675.06
2022-09-30T20:07:53.027Z,100681.83
2022-09-30T20:11:01.288Z,100682.77
2022-09-30T20:14:27.095Z,100682.98
2022-09-30T20:17:35.579Z,100679.59
2022-09-30T20:20:47.315Z,100689.47
2022-09-30T20:23:56.591Z,100687.74
2022-09-30T20:27:05.688Z,100681.77
2022-09-30T20:30:12.397Z,100676.86
2022-09-30T20:33:20.737Z,100663.56
2022-09-30T20:36:27.585Z,100660.45
2022-09-30T20:39:36.508Z,100663.98
2022-09-30T20:42:46.178Z,100650.69
2022-09-30T20:45:54.328Z,100653.66
2022-09-30T20:49:01.818Z,100648.23
2022-09-30T20:52:13.065Z,100641.67
2022-09-30T20:55:19.183Z,100636.77
2022-09-30T20:58:25.273Z,100633.48
2022-09-30T21:01:32.855Z,100633.80
2022-09-30T21:04:42.368Z,100632.63
2022-09-30T21:07:49.286Z,100632.63
2022-09-30T21:10:55.204Z,100637.95
2022-09-30T21:14:05.465Z,100630.73
2022-09-30T21:17:12.990Z,100624.89
2022-09-30T21:20:21.070Z,100618.92
2022-09-30T21:23:26.688Z,100616.23
2022-09-30T21:26:33.487Z,100616.98
2022-09-30T21:29:39.599Z,100612.19
2022-09-30T21:32:45.903Z,100615.36
2022-09-30T21:35:53.220Z,100619.20
2022-09-30T21:39:04.541Z,100615.12
2022-09-30T21:42:09.972Z,100618.30
2022-09-30T21:45:17.143Z,100625.81
2022-09-30T21:48:23.997Z,100628.02
2022-09-30T21:51:30.088Z,100624.16
2022-09-30T21:54:36.961Z,100635.16
2022-09-30T21:57:43.323Z,100644.45
2022-09-30T22:00:48.423Z,100660.45
2022-09-30T22:03:55.209Z,100653.49
2022-09-30T22:07:01.876Z,100657.89
2022-09-30T22:10:08.567Z,100654.50
2022-09-30T22:13:14.699Z,100654.91
2022-09-30T22:16:26.605Z,100652.27
2022-09-30T22:19:31.426Z,100661.71
2022-09-30T22:22:37.620Z,100659.44
2022-09-30T22:25:44.695Z,100658.78
2022-09-30T22:28:52.028Z,100661.59
2022-09-30T22:31:57.736Z,100657.13
2022-09-30T22:35:21.422Z,100652.69
2022-09-30T22:38:29.712Z,100654.11
2022-09-30T22:41:35.767Z,100658.53
2022-09-30T22:44:48.141Z,100661.89
2022-09-30T22:47:54.968Z,100665.04
2022-09-30T22:51:01.404Z,100667.33
2022-09-30T22:54:07.315Z,100676.51
2022-09-30T22:57:16.878Z,100683.45
2022-09-30T23:00:23.457Z,100681.83
2022-09-30T23:03:32.038Z,100689.83
2022-09-30T23:06:39.333Z,100691.98
2022-09-30T23:09:46.880Z,100687.58
2022-09-30T23:12:55.919Z,100690.53
2022-09-30T23:16:02.717Z,100691.75
2022-09-30T23:19:09.178Z,100687.30
2022-09-30T23:22:16.504Z,100681.79
2022-09-30T23:25:24.555Z,100690.05
2022-09-30T23:28:31.463Z,100691.95
2022-09-30T23:31:37.955Z,100693.67
2022-09-30T23:34:44.225Z,100698.64
2022-09-30T23:37:50.429Z,100696.23
2022-09-30T23:41:04.993Z,100701.55
2022-09-30T23:44:12.866Z,100697.06
2022-09-30T23:47:28.346Z,100698.99
2022-09-30T23:50:34.640Z,100707.38
2022-09-30T23:53:41.436Z,100719.19
2022-09-30T23:56:47.964Z,100721.75
2022-09-30T23:59:54.646Z,100721.55
